Time;durP1;ratioP1;P1;durP2;ratioP2;P2;SDS_P1;SDS_P2;PMS_P1;PMS_P2;Temp;Humidity;BMP_temperature;BMP_pressure;BME280_temperature;BME280_humidity;BME280_pressure;Samples;Min_cycle;Max_cycle;Signal;HPM_P1;HPM_P2
2021/07/24 00:02:39;;;;;;;16.17;10.35;;;;;;;15.26;76.37;101501.38;10200621;28;20061;-73
2021/07/24 00:07:37;;;;;;;14.70;9.13;;;;;;;15.21;76.44;101504.34;10203014;28;20072;-73
2021/07/24 00:12:34;;;;;;;14.52;9.05;;;;;;;15.18;76.90;101499.50;10170338;28;20045;-74
2021/07/24 00:17:30;;;;;;;15.38;9.77;;;;;;;15.15;76.42;101494.63;10208299;28;20042;-72
2021/07/24 00:22:27;;;;;;;13.82;9.07;;;;;;;15.11;76.53;101493.69;10212273;28;20072;-69
2021/07/24 00:27:23;;;;;;;13.65;9.30;;;;;;;15.06;77.07;101485.59;10205208;28;20103;-71
2021/07/24 00:32:20;;;;;;;15.85;8.88;;;;;;;15.03;76.83;101486.25;10204511;28;20140;-72
2021/07/24 00:37:19;;;;;;;16.52;9.57;;;;;;;15.00;77.54;101481.41;10183050;28;20050;-72
2021/07/24 00:42:25;;;;;;;13.15;9.05;;;;;;;14.97;77.26;101476.53;10208388;28;20045;-73
2021/07/24 00:47:32;;;;;;;15.88;9.35;;;;;;;14.93;77.48;101477.22;10209491;28;20168;-72
2021/07/24 00:52:30;;;;;;;15.02;9.27;;;;;;;14.89;77.58;101480.94;10190412;28;20647;-72
2021/07/24 00:57:26;;;;;;;16.38;10.65;;;;;;;14.84;77.56;101487.44;10197052;28;20066;-66
2021/07/24 01:02:22;;;;;;;12.20;8.50;;;;;;;14.81;77.44;101485.34;10190570;28;20043;-66
2021/07/24 01:07:19;;;;;;;13.68;8.73;;;;;;;14.79;77.58;101482.13;10185480;28;20041;-72
2021/07/24 01:12:16;;;;;;;17.15;8.77;;;;;;;14.78;77.67;101485.19;10192194;28;20076;-72
2021/07/24 01:17:13;;;;;;;17.20;9.32;;;;;;;14.71;77.66;101480.19;10198605;28;20049;-67
2021/07/24 01:22:09;;;;;;;11.95;8.15;;;;;;;14.68;77.70;101475.34;10213190;28;20049;-68
2021/07/24 01:27:07;;;;;;;12.90;8.35;;;;;;;14.64;78.17;101482.63;10195803;28;20499;-69
2021/07/24 01:32:05;;;;;;;14.07;9.25;;;;;;;14.58;77.98;101481.19;10196446;28;20074;-73
2021/07/24 01:37:01;;;;;;;13.75;8.57;;;;;;;14.56;78.08;101489.75;10190496;28;20088;-69
2021/07/24 01:41:58;;;;;;;15.10;9.00;;;;;;;14.52;78.32;101484.06;10195153;28;20053;-69
2021/07/24 01:46:54;;;;;;;15.93;9.85;;;;;;;14.49;78.05;101478.41;10205839;28;20220;-68
2021/07/24 01:57:22;;;;;;;14.32;8.32;;;;;;;14.44;78.27;101476.66;10191442;28;20132;-70
2021/07/24 02:02:19;;;;;;;13.80;9.15;;;;;;;14.39;78.41;101471.31;10191064;28;20073;-70
2021/07/24 02:07:19;;;;;;;13.30;8.48;;;;;;;14.37;78.12;101470.81;10200121;28;20041;-70
2021/07/24 02:12:16;;;;;;;16.45;8.73;;;;;;;14.33;78.54;101467.09;10193197;28;20048;-67
2021/07/24 02:17:13;;;;;;;12.70;7.93;;;;;;;14.32;78.38;101462.75;10192950;28;20045;-69
2021/07/24 02:22:09;;;;;;;15.63;8.57;;;;;;;14.28;78.14;101450.78;10194246;28;20045;-68
2021/07/24 02:27:09;;;;;;;12.88;8.10;;;;;;;14.25;78.68;101435.72;10210666;28;20473;-70
2021/07/24 02:32:05;;;;;;;13.82;8.82;;;;;;;14.23;78.85;101437.19;10199434;28;20045;-71
2021/07/24 02:37:02;;;;;;;12.52;8.77;;;;;;;14.24;79.00;101427.78;10194164;28;20054;-68
2021/07/24 02:41:59;;;;;;;13.70;8.38;;;;;;;14.22;79.00;101416.31;10199615;28;20141;-68
2021/07/24 02:46:55;;;;;;;15.10;9.57;;;;;;;14.20;79.08;101405.66;10209482;28;20069;-70
2021/07/24 02:51:51;;;;;;;12.40;8.88;;;;;;;14.20;79.30;101410.31;10203325;28;20463;-69
2021/07/24 02:56:48;;;;;;;13.13;8.27;;;;;;;14.17;79.53;101405.47;10209733;28;20050;-68
2021/07/24 03:01:45;;;;;;;12.60;8.63;;;;;;;14.15;79.01;101402.25;10200188;28;20038;-68
2021/07/24 03:06:42;;;;;;;12.65;8.10;;;;;;;14.10;79.36;101398.50;10203281;28;20096;-68
2021/07/24 03:11:38;;;;;;;12.60;9.10;;;;;;;14.06;78.66;101383.81;10198382;28;20112;-68
2021/07/24 03:16:35;;;;;;;13.43;8.88;;;;;;;14.05;78.98;101376.69;10204222;28;20080;-68
2021/07/24 03:21:32;;;;;;;13.73;8.60;;;;;;;14.04;79.34;101374.25;10202028;28;20129;-69
2021/07/24 03:26:29;;;;;;;13.00;9.18;;;;;;;14.01;79.47;101361.97;10196594;28;20136;-69
2021/07/24 03:31:25;;;;;;;12.88;8.75;;;;;;;13.98;79.85;101359.88;10203439;28;20042;-69
2021/07/24 03:36:22;;;;;;;16.33;9.85;;;;;;;13.98;79.76;101357.13;10206605;28;20052;-68
2021/07/24 03:41:18;;;;;;;14.27;9.05;;;;;;;13.97;79.56;101354.69;10198471;28;20133;-69
2021/07/24 03:46:17;;;;;;;12.32;9.15;;;;;;;13.98;80.16;101359.88;10205629;28;20045;-69
2021/07/24 03:51:14;;;;;;;11.73;8.40;;;;;;;13.98;80.09;101359.88;10203068;28;20100;-69
2021/07/24 03:56:16;;;;;;;13.35;8.95;;;;;;;13.99;80.23;101360.69;10206733;28;20046;-70
2021/07/24 04:01:12;;;;;;;13.88;8.52;;;;;;;13.98;80.61;101359.88;10197538;28;20050;-71
2021/07/24 04:06:18;;;;;;;13.38;8.75;;;;;;;14.00;80.31;101356.81;10189965;28;20069;-70
2021/07/24 04:11:15;;;;;;;16.90;8.85;;;;;;;14.02;80.58;101360.84;10206092;28;20045;-70
2021/07/24 04:16:12;;;;;;;14.98;8.98;;;;;;;14.04;80.51;101353.09;10186241;28;20115;-70
2021/07/24 04:21:09;;;;;;;13.52;9.27;;;;;;;14.08;80.51;101359.53;10207033;28;20045;-70
2021/07/24 04:26:05;;;;;;;12.70;8.88;;;;;;;14.10;80.68;101357.28;10187534;28;20045;-73
2021/07/24 04:31:02;;;;;;;15.05;9.38;;;;;;;14.13;80.91;101346.75;10186422;28;20050;-69
2021/07/24 04:35:59;;;;;;;14.73;9.63;;;;;;;14.16;81.11;101348.88;10198823;28;20065;-70
2021/07/24 04:40:55;;;;;;;14.02;8.27;;;;;;;14.21;80.90;101344.00;10197856;28;20041;-69
2021/07/24 04:45:52;;;;;;;11.82;8.05;;;;;;;14.27;80.93;101361.13;10208595;28;20468;-67
2021/07/24 04:50:52;;;;;;;13.60;8.40;;;;;;;14.30;80.98;101349.47;10202951;28;20056;-67
2021/07/24 04:55:48;;;;;;;14.15;8.65;;;;;;;14.35;81.36;101352.06;10199826;28;20053;-70
2021/07/24 05:00:46;;;;;;;11.70;7.25;;;;;;;14.43;81.42;101359.47;10209416;28;20578;-68
2021/07/24 05:05:43;;;;;;;13.35;7.25;;;;;;;14.50;81.72;101364.47;10208016;28;20048;-68
2021/07/24 05:10:40;;;;;;;12.43;8.07;;;;;;;14.57;81.47;101381.28;10196124;28;20120;-67
2021/07/24 05:15:40;;;;;;;15.70;7.68;;;;;;;14.62;81.88;101394.91;10202327;28;20046;-68
2021/07/24 05:20:36;;;;;;;13.95;7.90;;;;;;;14.67;81.68;101396.66;10195590;28;20077;-68
2021/07/24 05:25:33;;;;;;;12.95;8.18;;;;;;;14.70;82.14;101407.81;10201908;28;20050;-69
2021/07/24 05:30:31;;;;;;;15.50;8.15;;;;;;;14.76;82.11;101411.22;10192557;28;20054;-69
2021/07/24 05:35:28;;;;;;;12.80;8.23;;;;;;;14.82;82.00;101398.84;10200937;28;20099;-68
2021/07/24 05:40:24;;;;;;;15.20;7.93;;;;;;;14.88;82.23;101396.75;10211220;28;20526;-68
2021/07/24 05:45:21;;;;;;;12.38;7.60;;;;;;;14.96;83.02;101392.34;10183789;28;20057;-68
2021/07/24 05:50:18;;;;;;;11.13;7.40;;;;;;;15.03;83.19;101381.59;10189887;28;20101;-67
2021/07/24 05:55:14;;;;;;;14.48;8.02;;;;;;;15.12;83.52;101380.41;10201205;28;20092;-68
2021/07/24 06:00:11;;;;;;;12.07;7.72;;;;;;;15.23;83.71;101380.84;10202373;28;20056;-69
2021/07/24 06:05:08;;;;;;;11.23;7.45;;;;;;;15.31;83.41;101366.19;10198898;28;20099;-68
2021/07/24 06:10:05;;;;;;;11.77;7.07;;;;;;;15.45;84.14;101365.94;10199805;28;20080;-67
2021/07/24 06:15:01;;;;;;;10.90;7.18;;;;;;;15.55;84.12;101364.75;10205865;28;20096;-67
2021/07/24 06:19:58;;;;;;;11.38;7.22;;;;;;;15.66;84.59;101368.69;10198297;28;20083;-69
2021/07/24 06:24:54;;;;;;;13.80;8.48;;;;;;;15.76;84.41;101364.78;10206553;28;20482;-70
2021/07/24 06:29:51;;;;;;;10.20;7.18;;;;;;;15.91;84.04;101355.06;10197926;28;20042;-68
2021/07/24 06:34:47;;;;;;;19.23;7.18;;;;;;;16.04;83.52;101348.47;10195777;28;20129;-66
2021/07/24 06:39:43;;;;;;;9.93;6.35;;;;;;;16.13;82.71;101340.09;10197297;28;20229;-66
2021/07/24 06:44:40;;;;;;;12.82;7.00;;;;;;;16.31;81.75;101336.00;10180071;28;20076;-69
2021/07/24 06:49:36;;;;;;;12.38;5.55;;;;;;;16.43;81.37;101318.69;10200574;28;20116;-69
2021/07/24 06:54:33;;;;;;;9.98;5.97;;;;;;;16.53;80.76;101325.69;10197026;28;20099;-69
2021/07/24 06:59:29;;;;;;;9.80;5.30;;;;;;;16.66;80.34;101313.50;10209731;28;20128;-71
2021/07/24 07:04:26;;;;;;;11.23;4.93;;;;;;;16.78;79.52;101309.94;10207471;28;20038;-70
2021/07/24 07:09:23;;;;;;;8.52;4.97;;;;;;;16.93;78.36;101300.97;10217352;28;20213;-70
2021/07/24 07:14:19;;;;;;;9.98;4.60;;;;;;;17.07;78.19;101294.28;10205240;28;20132;-70
2021/07/24 07:19:16;;;;;;;11.68;4.80;;;;;;;17.21;76.51;101305.78;10202462;28;20646;-68
2021/07/24 07:24:13;;;;;;;10.23;5.15;;;;;;;17.35;75.89;101295.13;10204555;28;20081;-68
2021/07/24 07:29:10;;;;;;;8.23;4.28;;;;;;;17.44;75.51;101292.25;10201652;28;20057;-67
2021/07/24 07:34:06;;;;;;;10.50;3.83;;;;;;;17.60;74.64;101275.72;10194826;28;20141;-68
2021/07/24 07:39:03;;;;;;;11.77;4.18;;;;;;;17.73;74.59;101276.44;10195891;28;20050;-69
2021/07/24 07:43:59;;;;;;;7.93;3.58;;;;;;;17.83;74.03;101265.72;10196752;28;20495;-68
2021/07/24 07:48:57;;;;;;;8.20;4.18;;;;;;;18.02;72.82;101267.00;10183109;28;20164;-68
2021/07/24 07:53:54;;;;;;;9.90;4.18;;;;;;;18.16;72.36;101272.91;10191480;28;20046;-70
2021/07/24 07:58:50;;;;;;;12.10;4.13;;;;;;;18.36;70.85;101262.72;10196788;28;20129;-68
2021/07/24 08:03:46;;;;;;;9.25;3.60;;;;;;;18.44;70.72;101249.88;10198605;28;20081;-67
2021/07/24 08:08:43;;;;;;;11.50;4.22;;;;;;;18.60;68.47;101255.38;10192129;28;20129;-68
2021/07/24 08:13:40;;;;;;;7.60;4.18;;;;;;;18.79;68.56;101249.91;10180671;28;20096;-70
2021/07/24 08:18:36;;;;;;;7.63;3.88;;;;;;;18.91;64.69;101232.38;10187796;28;20503;-68
2021/07/24 08:23:33;;;;;;;7.40;4.28;;;;;;;19.13;66.18;101231.69;10189016;28;20076;-68
2021/07/24 08:28:29;;;;;;;8.68;3.45;;;;;;;19.24;63.03;101228.31;10188822;28;20042;-68
2021/07/24 08:33:26;;;;;;;9.07;4.00;;;;;;;19.37;61.00;101224.22;10205215;28;20092;-67
2021/07/24 08:38:23;;;;;;;9.38;3.67;;;;;;;19.57;60.70;101215.91;10195398;28;20587;-68
2021/07/24 08:43:21;;;;;;;7.30;3.17;;;;;;;19.78;60.98;101205.22;10183564;28;20076;-68
2021/07/24 08:48:18;;;;;;;8.10;3.72;;;;;;;19.95;61.37;101210.28;10188453;28;20077;-70
2021/07/24 08:53:18;;;;;;;6.05;3.20;;;;;;;20.13;61.16;101210.59;10161904;28;20080;-69
2021/07/24 08:58:18;;;;;;;10.27;4.22;;;;;;;20.30;60.93;101202.94;10183939;28;20044;-68
2021/07/24 09:03:19;;;;;;;7.40;3.38;;;;;;;20.43;58.25;101206.31;10202096;28;20527;-70
2021/07/24 09:08:16;;;;;;;6.40;3.75;;;;;;;20.59;57.34;101215.31;10201679;28;20144;-69
2021/07/24 09:13:15;;;;;;;6.97;3.92;;;;;;;20.77;57.42;101199.69;10203539;28;20088;-69
2021/07/24 09:18:12;;;;;;;6.95;3.15;;;;;;;21.01;57.94;101186.50;10189541;28;20080;-68
2021/07/24 09:23:29;;;;;;;7.80;3.50;;;;;;;21.20;57.14;101193.88;10188430;28;20077;-71
2021/07/24 09:28:35;;;;;;;6.38;3.40;;;;;;;21.34;57.68;101193.25;10178975;28;20073;-68
2021/07/24 09:33:31;;;;;;;8.07;3.38;;;;;;;21.60;56.42;101200.72;10179039;28;20046;-68
2021/07/24 09:39:03;;;;;;;;;;;;;;;;;;;;;
2021/07/24 09:44:04;;;;;;;5.28;2.33;;;;;;;21.92;54.89;101183.53;10184919;28;20045;-69
2021/07/24 09:49:15;;;;;;;7.05;3.30;;;;;;;22.19;52.52;101178.59;10182130;28;20942;-72
2021/07/24 09:54:28;;;;;;;5.90;2.90;;;;;;;22.27;53.44;101171.88;10187732;28;20784;-68
2021/07/24 09:59:32;;;;;;;6.72;3.30;;;;;;;22.57;52.63;101162.53;10193036;28;20476;-69
2021/07/24 10:04:38;;;;;;;5.47;2.58;;;;;;;22.92;52.04;101175.06;10189408;28;20084;-69
2021/07/24 10:09:56;;;;;;;6.43;3.13;;;;;;;23.31;50.85;101184.38;10172262;28;20077;-71
2021/07/24 10:14:53;;;;;;;9.57;3.47;;;;;;;23.81;48.65;101171.75;10184708;28;20037;-69
2021/07/24 10:19:51;;;;;;;5.72;2.72;;;;;;;25.01;47.37;101190.75;10184532;28;20527;-68
2021/07/24 10:24:48;;;;;;;6.68;3.20;;;;;;;26.19;46.54;101174.00;10183829;28;20145;-68
2021/07/24 10:30:03;;;;;;;7.40;3.50;;;;;;;27.32;45.54;101166.75;10183870;28;20061;-68
2021/07/24 10:35:01;;;;;;;4.32;2.80;;;;;;;28.08;42.67;101164.38;10189909;28;20088;-70
2021/07/24 10:40:23;;;;;;;5.03;3.42;;;;;;;29.26;41.31;101177.38;10183876;28;20092;-69
2021/07/24 10:45:37;;;;;;;6.55;3.00;;;;;;;30.03;42.39;101170.31;10172278;28;20125;-71
2021/07/24 10:50:53;;;;;;;7.97;3.35;;;;;;;30.06;35.14;101168.66;10180586;28;20076;-71
2021/07/24 10:55:51;;;;;;;8.95;2.92;;;;;;;30.48;35.53;101147.00;10185657;28;20046;-71
2021/07/24 11:00:52;;;;;;;5.63;2.50;;;;;;;31.07;32.23;101130.78;10185040;28;20069;-74
2021/07/24 11:05:49;;;;;;;5.97;3.13;;;;;;;31.74;36.15;101137.56;10163723;28;20072;-71
2021/07/24 11:17:05;;;;;;;6.43;3.97;;;;;;;31.87;32.33;101113.66;10186349;28;20434;-71
2021/07/24 11:22:15;;;;;;;4.55;2.80;;;;;;;31.50;34.81;101111.72;10184886;28;20057;-72
2021/07/24 11:27:12;;;;;;;4.80;3.20;;;;;;;32.17;32.45;101105.81;10189022;28;20117;-70
2021/07/24 11:32:08;;;;;;;5.93;3.00;;;;;;;32.44;34.27;101099.53;10194010;28;20084;-67
2021/07/24 11:37:05;;;;;;;7.95;4.07;;;;;;;31.94;30.82;101087.19;10191407;28;20056;-69
2021/07/24 11:42:19;;;;;;;7.13;3.80;;;;;;;32.07;31.40;101090.81;10174473;28;20049;-70
2021/07/24 11:47:16;;;;;;;7.22;2.80;;;;;;;32.45;32.33;101089.03;10188061;28;20104;-70
2021/07/24 11:52:23;;;;;;;7.82;4.00;;;;;;;31.75;35.93;101066.44;10195095;28;20136;-69
2021/07/24 11:57:29;;;;;;;8.20;4.07;;;;;;;30.41;36.84;101080.28;10197606;28;20124;-69
2021/07/24 12:02:25;;;;;;;5.78;3.55;;;;;;;29.55;33.65;101082.53;10197574;28;20108;-69
2021/07/24 12:07:26;;;;;;;5.90;4.05;;;;;;;29.67;34.50;101071.78;10205130;28;20049;-70
2021/07/24 12:12:32;;;;;;;8.15;4.50;;;;;;;30.16;34.49;101080.16;10209041;28;20053;-69
2021/07/24 12:17:28;;;;;;;6.63;4.47;;;;;;;29.67;34.98;101077.41;10185123;28;20145;-69
2021/07/24 12:22:37;;;;;;;7.03;4.40;;;;;;;29.19;38.03;101062.09;10162595;28;20093;-68
2021/07/24 12:27:34;;;;;;;9.32;4.65;;;;;;;28.82;38.55;101067.72;10125443;28;20058;-68
2021/07/24 12:32:49;;;;;;;8.60;5.00;;;;;;;28.92;39.40;101063.09;10170799;28;20049;-68
2021/07/24 12:37:45;;;;;;;6.75;4.57;;;;;;;28.66;40.65;101057.22;10196617;28;20112;-68
2021/07/24 12:42:43;;;;;;;6.30;3.67;;;;;;;28.31;37.73;101037.03;10194537;28;20057;-68
2021/07/24 12:47:41;;;;;;;7.95;4.70;;;;;;;28.31;38.86;101045.47;10182790;28;20180;-68
2021/07/24 12:52:59;;;;;;;6.80;4.93;;;;;;;28.00;42.90;101039.25;10171965;28;20132;-68
2021/07/24 13:05:05;;;;;;;10.98;5.88;;;;;;;27.97;42.66;101028.88;10153956;28;20049;-67
2021/07/24 13:10:03;;;;;;;10.27;6.35;;;;;;;27.87;39.49;101025.06;10195508;28;20124;-68
2021/07/24 13:15:00;;;;;;;9.95;5.97;;;;;;;27.79;39.44;101029.16;10205029;28;20050;-68
2021/07/24 13:20:05;;;;;;;11.05;5.80;;;;;;;27.90;42.73;101010.13;10190397;28;20739;-68
2021/07/24 13:25:41;;;;;;;6.43;5.13;;;;;;;27.93;43.55;101013.31;10204131;28;20095;-67
2021/07/24 13:37:09;;;;;;;10.27;6.57;;;;;;;28.05;40.91;101001.41;10130087;28;20054;-68
2021/07/24 13:42:05;;;;;;;8.43;6.70;;;;;;;28.03;39.33;100992.63;10198607;28;20091;-67
2021/07/24 13:47:02;;;;;;;7.55;5.72;;;;;;;28.09;41.87;100999.34;10192837;28;20077;-68
2021/07/24 13:52:00;;;;;;;11.43;6.50;;;;;;;28.22;42.01;100991.84;10195589;28;20393;-67
2021/07/24 13:56:56;;;;;;;10.85;6.25;;;;;;;28.25;40.12;100984.56;10197884;28;20132;-68
2021/07/24 14:01:53;;;;;;;7.40;5.55;;;;;;;28.37;42.10;100988.72;10201132;28;20589;-67
2021/07/24 14:06:50;;;;;;;10.73;6.05;;;;;;;28.66;38.82;100998.16;10186904;28;20045;-69
2021/07/24 14:11:46;;;;;;;10.07;7.22;;;;;;;28.63;36.04;100984.94;10192058;28;20467;-69
2021/07/24 14:16:43;;;;;;;11.57;7.47;;;;;;;28.63;38.74;100990.56;10196251;28;20069;-67
2021/07/24 14:21:40;;;;;;;11.77;6.05;;;;;;;28.62;39.99;100980.56;10199073;28;20072;-68
2021/07/24 14:26:36;;;;;;;9.52;6.95;;;;;;;28.72;39.80;100971.06;10196353;28;20076;-68
2021/07/24 14:31:33;;;;;;;13.15;6.97;;;;;;;28.93;37.14;100966.16;10198758;28;20088;-69
2021/07/24 14:36:29;;;;;;;12.27;7.55;;;;;;;29.01;37.13;100953.53;10181247;28;20136;-67
2021/07/24 14:41:26;;;;;;;14.05;8.05;;;;;;;28.96;41.19;100951.22;10207247;28;20077;-67
2021/07/24 14:46:23;;;;;;;13.10;8.40;;;;;;;28.70;38.05;100941.78;10200987;28;20104;-67
2021/07/24 14:51:20;;;;;;;11.10;7.47;;;;;;;28.66;39.20;100927.81;10202740;28;20053;-68
2021/07/24 14:56:17;;;;;;;10.93;7.68;;;;;;;28.70;41.04;100917.25;10197746;28;20112;-69
2021/07/24 15:01:14;;;;;;;8.13;6.80;;;;;;;28.70;36.74;100911.63;10188582;28;21348;-68
2021/07/24 15:06:13;;;;;;;10.63;7.53;;;;;;;28.72;37.43;100909.16;10187822;28;20759;-69
2021/07/24 15:11:12;;;;;;;11.30;7.68;;;;;;;28.56;36.43;100899.94;10190173;28;20108;-68
2021/07/24 15:16:11;;;;;;;10.45;7.32;;;;;;;28.53;41.92;100899.59;10185777;28;20531;-68
2021/07/24 15:21:18;;;;;;;13.73;8.27;;;;;;;28.66;40.85;100899.69;10199463;28;20450;-67
2021/07/24 15:26:18;;;;;;;10.55;7.38;;;;;;;28.85;41.90;100900.06;10191098;28;20450;-69
2021/07/24 15:31:14;;;;;;;14.27;9.10;;;;;;;29.01;39.55;100891.59;10193234;28;20084;-68
2021/07/24 15:36:12;;;;;;;10.90;8.45;;;;;;;29.18;38.39;100883.16;10193564;28;20073;-68
2021/07/24 15:41:10;;;;;;;15.65;8.80;;;;;;;29.17;37.25;100879.53;10174036;28;20130;-68
2021/07/24 15:46:07;;;;;;;10.40;8.32;;;;;;;29.12;39.19;100869.59;10199700;28;20080;-68
2021/07/24 15:51:05;;;;;;;10.73;7.47;;;;;;;28.95;41.65;100859.59;10186108;28;20045;-73
2021/07/24 15:56:07;;;;;;;12.30;8.60;;;;;;;29.19;38.53;100846.09;10177309;28;20483;-70
2021/07/24 16:01:13;;;;;;;14.07;8.88;;;;;;;29.33;39.55;100856.19;10197070;28;20084;-70
2021/07/24 16:06:10;;;;;;;10.13;7.60;;;;;;;29.64;39.08;100847.25;10192763;28;20377;-71
2021/07/24 16:11:07;;;;;;;10.00;7.60;;;;;;;29.95;39.11;100845.56;10194296;28;20056;-71
2021/07/24 16:16:03;;;;;;;10.88;8.45;;;;;;;29.99;35.97;100843.41;10192630;28;20094;-71
2021/07/24 16:21:00;;;;;;;10.10;7.22;;;;;;;29.36;35.52;100835.59;10196971;28;20049;-72
2021/07/24 16:25:57;;;;;;;10.60;8.45;;;;;;;28.93;39.39;100833.91;10190240;28;20053;-69
2021/07/24 16:30:53;;;;;;;12.50;7.97;;;;;;;28.54;40.14;100830.06;10186899;28;20053;-71
2021/07/24 16:35:50;;;;;;;11.13;8.15;;;;;;;28.30;38.93;100810.50;10173008;28;20689;-70
2021/07/24 16:40:46;;;;;;;10.48;8.07;;;;;;;28.29;40.65;100813.75;10176227;28;20129;-70
2021/07/24 16:45:42;;;;;;;11.80;8.52;;;;;;;28.08;40.07;100804.63;10183947;28;20038;-68
2021/07/24 16:50:39;;;;;;;10.48;7.30;;;;;;;28.37;41.49;100797.53;10180844;28;20076;-69
2021/07/24 16:55:35;;;;;;;12.23;7.30;;;;;;;28.40;42.25;100791.00;10177428;28;20130;-69
2021/07/24 17:00:32;;;;;;;13.05;9.05;;;;;;;28.23;39.72;100776.94;10180214;28;20148;-70
2021/07/24 17:05:28;;;;;;;11.93;8.70;;;;;;;28.24;43.03;100777.75;10184110;28;20062;-70
2021/07/24 17:10:25;;;;;;;13.43;8.05;;;;;;;28.11;42.77;100769.22;10193000;28;20423;-69
2021/07/24 17:15:21;;;;;;;13.27;8.32;;;;;;;27.83;43.68;100768.66;10191098;28;20093;-72
2021/07/24 17:20:20;;;;;;;11.80;8.13;;;;;;;27.73;44.29;100761.22;10181665;28;20049;-70
2021/07/24 17:25:17;;;;;;;13.43;8.85;;;;;;;27.63;44.00;100757.41;10184592;28;20049;-68
2021/07/24 17:30:13;;;;;;;11.75;8.60;;;;;;;27.46;44.59;100748.16;10182592;28;20137;-69
2021/07/24 17:35:15;;;;;;;14.57;8.77;;;;;;;27.37;43.16;100745.16;10191671;28;20042;-68
2021/07/24 17:40:13;;;;;;;12.50;8.95;;;;;;;27.25;45.22;100748.63;10187562;28;20045;-71
2021/07/24 17:45:12;;;;;;;12.55;8.30;;;;;;;27.13;45.14;100746.41;10182383;28;20038;-70
2021/07/24 17:50:13;;;;;;;30.92;22.77;;;;;;;27.00;45.41;100755.47;10181214;28;20157;-68
2021/07/24 17:55:10;;;;;;;13.35;10.07;;;;;;;26.88;45.53;100747.72;10181226;28;20073;-70
2021/07/24 18:00:07;;;;;;;11.82;8.00;;;;;;;26.77;46.83;100747.13;10188078;28;20088;-69
2021/07/24 18:05:04;;;;;;;11.25;8.43;;;;;;;26.65;46.90;100740.91;10189319;28;20088;-70
2021/07/24 18:10:00;;;;;;;11.13;7.68;;;;;;;26.55;49.00;100744.69;10196272;28;20144;-70
2021/07/24 18:14:57;;;;;;;12.07;8.57;;;;;;;26.41;49.21;100751.31;10189660;28;20041;-69
2021/07/24 18:19:53;;;;;;;8.35;6.63;;;;;;;26.32;50.66;100750.25;10186453;28;20099;-70
2021/07/24 18:24:50;;;;;;;11.25;7.45;;;;;;;26.19;49.77;100759.28;10194519;28;20092;-71
2021/07/24 18:29:46;;;;;;;10.63;7.78;;;;;;;26.13;50.50;100755.38;10189740;28;20456;-69
2021/07/24 18:34:43;;;;;;;12.68;7.70;;;;;;;26.06;50.77;100755.47;10185928;28;20092;-70
2021/07/24 18:39:40;;;;;;;11.43;7.72;;;;;;;26.02;50.79;100754.75;10186989;28;20041;-70
2021/07/24 18:44:36;;;;;;;10.05;7.15;;;;;;;25.96;50.97;100756.44;10195259;28;20170;-69
2021/07/24 18:49:33;;;;;;;13.18;7.63;;;;;;;25.89;51.18;100759.34;10192867;28;20054;-71
2021/07/24 18:54:29;;;;;;;15.70;7.68;;;;;;;25.81;51.71;100762.22;10195129;28;20069;-71
2021/07/24 18:59:27;;;;;;;12.02;7.70;;;;;;;25.70;52.07;100755.97;10182003;28;20058;-70
2021/07/24 19:04:24;;;;;;;15.15;8.48;;;;;;;25.61;52.41;100744.50;10185186;28;20104;-70
2021/07/24 19:09:20;;;;;;;15.48;9.00;;;;;;;25.48;53.39;100737.88;10203542;28;20045;-72
2021/07/24 19:14:19;;;;;;;13.95;8.48;;;;;;;25.37;53.25;100744.41;10199538;28;20140;-70
2021/07/24 19:19:15;;;;;;;12.35;8.30;;;;;;;25.26;52.93;100746.53;10197686;28;20046;-69
2021/07/24 19:24:12;;;;;;;12.35;8.30;;;;;;;25.14;53.63;100752.66;10200390;28;20050;-71
2021/07/24 19:29:08;;;;;;;13.18;9.02;;;;;;;25.04;54.11;100747.97;10207768;28;20148;-70
2021/07/24 19:34:06;;;;;;;11.57;8.75;;;;;;;24.94;54.23;100744.88;10214089;28;20652;-70
2021/07/24 19:39:03;;;;;;;15.95;9.73;;;;;;;24.85;53.55;100747.34;10212131;28;20076;-70
2021/07/24 19:43:59;;;;;;;12.52;8.48;;;;;;;24.75;54.29;100742.69;10208126;28;20049;-70
2021/07/24 19:48:56;;;;;;;13.65;8.38;;;;;;;24.66;54.36;100751.53;10212540;28;20115;-70
2021/07/24 19:53:53;;;;;;;13.45;8.57;;;;;;;24.59;54.90;100750.81;10198201;28;20092;-69
2021/07/24 19:58:49;;;;;;;13.40;8.60;;;;;;;24.54;54.71;100761.25;10197455;28;20090;-70
2021/07/24 20:03:46;;;;;;;11.88;8.85;;;;;;;24.49;55.16;100758.91;10194830;28;20050;-69
2021/07/24 20:08:43;;;;;;;14.90;9.10;;;;;;;24.42;56.51;100744.16;10193442;28;20049;-70
2021/07/24 20:13:39;;;;;;;13.25;8.75;;;;;;;24.36;53.93;100746.59;10210224;28;20092;-68
2021/07/24 20:18:36;;;;;;;13.13;8.70;;;;;;;24.33;55.84;100733.47;10197691;28;20065;-71
2021/07/24 20:23:32;;;;;;;14.52;9.77;;;;;;;24.24;54.56;100736.72;10208394;28;20056;-71
2021/07/24 20:28:30;;;;;;;19.48;9.85;;;;;;;24.22;52.67;100741.13;10185756;28;20066;-71
2021/07/24 20:33:27;;;;;;;15.35;10.73;;;;;;;24.15;53.11;100728.78;10201108;28;20041;-71
2021/07/24 20:38:24;;;;;;;16.85;10.07;;;;;;;24.14;53.06;100732.81;10182658;28;20699;-71
2021/07/24 20:43:20;;;;;;;15.75;10.52;;;;;;;24.10;54.41;100720.06;10197294;28;20076;-68
2021/07/24 20:48:16;;;;;;;12.63;9.60;;;;;;;24.08;54.97;100731.66;10192203;28;20045;-70
2021/07/24 20:53:13;;;;;;;15.55;10.27;;;;;;;24.06;55.14;100725.66;10184492;28;20076;-71
2021/07/24 20:58:16;;;;;;;16.10;10.80;;;;;;;23.98;51.67;100731.75;10185845;28;20046;-69
2021/07/24 21:03:12;;;;;;;13.52;10.18;;;;;;;24.01;51.94;100728.91;10187915;28;20073;-70
2021/07/24 21:08:09;;;;;;;32.33;11.05;;;;;;;23.99;51.96;100724.94;10192231;28;20050;-69
2021/07/24 21:13:07;;;;;;;11.93;7.57;;;;;;;24.03;56.89;100726.50;10181377;28;20185;-70
2021/07/24 21:18:03;;;;;;;15.30;9.75;;;;;;;23.97;55.56;100728.13;10199143;28;20046;-70
2021/07/24 21:23:00;;;;;;;11.60;7.75;;;;;;;23.95;58.09;100736.16;10196887;28;20158;-69
2021/07/24 21:27:57;;;;;;;13.23;9.10;;;;;;;23.90;56.00;100742.13;10168100;28;20631;-71
2021/07/24 21:32:54;;;;;;;17.13;11.32;;;;;;;23.88;55.44;100741.75;10192372;28;20144;-69
2021/07/24 21:37:50;;;;;;;15.35;9.35;;;;;;;23.78;52.21;100737.03;10189334;28;20135;-70
2021/07/24 21:42:47;;;;;;;13.07;9.38;;;;;;;23.75;52.61;100741.44;10197875;28;20080;-70
2021/07/24 21:47:43;;;;;;;15.60;9.02;;;;;;;23.73;53.16;100752.97;10183874;28;20073;-70
2021/07/24 21:52:40;;;;;;;10.68;8.32;;;;;;;23.74;51.13;100781.72;10177038;28;20042;-70
2021/07/24 21:57:37;;;;;;;13.40;9.38;;;;;;;23.75;50.98;100790.91;10194034;28;20080;-72
2021/07/24 22:02:33;;;;;;;15.00;8.88;;;;;;;23.72;51.29;100796.06;10183908;28;20053;-68
2021/07/24 22:07:30;;;;;;;14.18;9.50;;;;;;;23.64;51.52;100794.50;10186627;28;20495;-70
2021/07/24 22:12:26;;;;;;;13.80;9.05;;;;;;;23.61;51.87;100784.16;10185155;28;20081;-71
2021/07/24 22:17:23;;;;;;;11.48;8.80;;;;;;;23.53;52.56;100780.59;10181730;28;20431;-69
2021/07/24 22:22:19;;;;;;;17.05;10.80;;;;;;;23.46;52.60;100788.19;10187933;28;20046;-70
2021/07/24 22:27:16;;;;;;;17.05;10.20;;;;;;;23.38;54.21;100769.91;10193120;28;20069;-70
2021/07/24 22:32:13;;;;;;;14.75;10.32;;;;;;;23.24;55.51;100765.97;10189570;28;20132;-67
2021/07/24 22:37:09;;;;;;;12.23;9.35;;;;;;;23.11;55.63;100778.75;10188777;28;20538;-70
2021/07/24 22:42:06;;;;;;;14.60;10.40;;;;;;;23.03;60.57;100766.03;10188276;28;20061;-71
2021/07/24 22:47:02;;;;;;;14.05;10.98;;;;;;;22.66;63.51;100756.91;10201286;28;20411;-72
2021/07/24 22:51:59;;;;;;;16.52;11.00;;;;;;;22.42;65.66;100750.16;10183542;28;20042;-69
2021/07/24 22:56:56;;;;;;;15.88;12.07;;;;;;;22.18;63.63;100732.19;10182339;28;20077;-72
2021/07/24 23:01:52;;;;;;;15.02;11.73;;;;;;;22.10;65.34;100715.91;10193056;28;20077;-69
2021/07/24 23:06:50;;;;;;;17.23;12.52;;;;;;;21.96;64.33;100705.56;10188338;28;20038;-70